Valdez, AK

7:37 PM AKST on February 08, 2016 (GMT -0900)
Valdez | | Change Station
CLOSE
Current Station
Airport
Location: Valdez Airport,
Elevation: 121 ft
Nearby Weather Stations

Elev 121 ft 61.13 °N, 146.25 °W | Updated 1 minute ago

Scattered Clouds
Scattered Clouds
28 °F
Feels Like 28 °F
N
0
Wind Variable Wind from North

Today
High -- | Low -- °F
--% Chance of Precip.
Yesterday
High -- | Low -- °F
Precip. -- in
Pressure 29.88 in
Visibility 10.0 miles
Clouds Few 9000 ft
Scattered Clouds 20000 ft
Dew Point 27 °F
Humidity 93%
Rainfall 0.49 in
Snow Depth Not available.
8:47 AM 5:11 PM
New Moon, 0% visible
METAR PAVD 090436Z 00000KT 10SM FEW090 SCT200 M02/M03 A2988 RMK AO1 0347Z WEA: NONE TWR WND 35003KT
Pressure 29.88 in
Visibility 10.0 miles
Clouds Few 9000 ft
Scattered Clouds 20000 ft
Dew Point 27 °F
Humidity 93%
Rainfall 0.49 in
Snow Depth Not available.
8:47 AM 5:11 PM
New Moon, 0% visible
METAR PAVD 090436Z 00000KT 10SM FEW090 SCT200 M02/M03 A2988 RMK AO1 0347Z WEA: NONE TWR WND 35003KT

10-Day Weather Forecast

Almanac

Astronomy

Feb. 08, 2016 Rise Set
Actual Time
Civil Twilight
Nautical Twilight
Astronomical Twilight
Moon
Length of Visible Light
Length of Day
Tomorrow will be .
, % of the Moon is Illuminated

Today's Extremes

State Highs State Lows

Community

WunderPhotos

Upload Photos

1,891,541 photos uploaded!

WunderBlog® & News

Nearby

Air Quality

  Air Quality AQ Index Pollutant
Not available.

Snow Depth

Station Depth Elevation

Earthquake Activity

City Distance Mag. Time & Date
Minimum magnitude displayed is 2.5.

Coastal Water Temperatures

Place Temperature

Stations

Nearby Weather Stations

Station Location Temp. Windchill Dew Point Humidity Wind Precip. Elev Updated Type
                   

Watches & Warnings

There are currently no watches in effect.